Latest Weather Observations for Cape Naturaliste

IDW60801

Issued at 11:33 pm WST Saturday 25 April 2015 (issued every 30 minutes, with the page automatically refreshed every 10 minutes)

About weather observations | Map of weather stations | Latest weather observations for WA | Other Formats
Station Details ID: 009519 Name: CAPE NATURALISTE Lat: -33.54 Lon: 115.02 Height: 109.0 m
Data from the previous 72 hours. | See also: Recent months at Cape Naturaliste
Date/Time
WST
Temp
°C
App
Temp
°C
Dew
Point
Rel
Hum
%
Delta-T
°C
Wind Press
QNH
hPa
Press
MSL
hPa
Rain
since 9 am
mm
Dir
 
Spd
km/h
Gust
km/h
Spd
kts
Gust
kts
25/11:30pm 13.3 6.4 6.4 63 3.3 ESE 32 43 17 23 1025.8 1025.6 0.0
25/11:00pm 13.8 7.4 6.9 63 3.3 ESE 30 39 16 21 1026.0 1025.8 0.0
25/10:30pm 13.9 7.5 7.0 63 3.4 ESE 30 37 16 20 1026.1 1025.9 0.0
25/10:00pm 13.6 7.1 6.5 62 3.4 ESE 30 37 16 20 1026.2 1026.0 0.0
25/09:30pm 13.9 7.4 6.5 61 3.6 ESE 30 39 16 21 1026.2 1026.0 0.0
25/09:00pm 14.4 8.0 7.0 61 3.6 ESE 30 41 16 22 1026.0 1025.8 0.0
25/08:30pm 14.6 8.2 6.9 60 3.8 ESE 30 41 16 22 1025.8 1025.6 0.0
25/08:00pm 14.6 7.6 6.2 57 4.0 ESE 32 43 17 23 1025.8 1025.6 0.0
25/07:30pm 14.7 8.1 6.0 56 4.2 ESE 30 43 16 23 1025.6 1025.4 0.0
25/07:00pm 14.7 8.5 6.3 57 4.0 SE 28 37 15 20 1025.5 1025.3 0.0
25/06:30pm 14.8 9.5 6.6 58 4.0 SE 24 32 13 17 1025.4 1025.2 0.0
25/06:00pm 15.3 10.4 6.8 57 4.2 SE 22 30 12 16 1025.2 1025.0 0.0
25/05:30pm 16.1 11.2 6.8 54 4.6 SE 22 30 12 16 1025.0 1024.8 0.0
25/05:00pm 17.1 12.7 7.2 52 4.9 SE 20 30 11 16 1024.9 1024.7 0.0
25/04:30pm 17.9 13.4 7.0 49 5.5 ESE 20 32 11 17 1024.8 1024.6 0.0
25/04:00pm 18.6 14.2 7.4 48 5.7 ESE 20 32 11 17 1025.0 1024.8 0.0
25/03:30pm 18.9 13.8 7.7 48 5.7 ESE 24 32 13 17 1025.1 1024.9 0.0
25/03:00pm 19.4 15.4 8.4 49 5.7 E 19 24 10 13 1025.2 1025.0 0.0
25/02:30pm 18.6 15.1 8.6 52 5.2 E 17 24 9 13 1025.2 1025.0 0.0
25/02:00pm 19.3 15.2 8.0 48 5.8 E 19 26 10 14 1025.3 1025.1 0.0
25/01:30pm 19.4 15.2 8.4 49 5.7 E 20 32 11 17 1025.4 1025.2 0.0
25/01:00pm 19.5 15.4 8.5 49 5.7 E 20 32 11 17 1025.8 1025.6 0.0
25/12:30pm 18.6 13.2 8.0 50 5.5 ENE 26 33 14 18 1026.3 1026.1 0.0
25/12:00pm 18.6 13.7 8.3 51 5.3 ENE 24 32 13 17 1026.9 1026.7 0.0
25/11:30am 17.8 13.1 9.4 58 4.4 ENE 24 35 13 19 1027.3 1027.1 0.0
25/11:00am 15.9 11.0 8.6 62 3.7 ENE 24 39 13 21 1027.6 1027.4 0.0
25/10:30am 16.4 10.9 9.1 62 3.8 ENE 28 39 15 21 1027.9 1027.7 0.0
25/10:00am 16.2 9.9 8.9 62 3.7 ENE 32 41 17 22 1028.1 1027.9 0.0
25/09:30am 15.7 9.5 9.4 66 3.3 ENE 32 43 17 23 1028.4 1028.2 0.0
25/09:00am 15.1 9.3 9.5 69 2.9 E 30 41 16 22 1028.4 1028.2 0.0
25/08:30am 14.2 7.7 8.8 70 2.7 E 33 44 18 24 1028.4 1028.2 0.0
25/08:00am 13.8 7.3 8.8 72 2.5 E 33 46 18 25 1028.1 1027.9 0.0
25/07:30am 13.0 6.8 9.3 78 1.9 E 32 43 17 23 1027.6 1027.4 0.0
25/07:00am 10.0 5.4 6.7 80 1.5 ESE 20 30 11 16 1027.3 1027.1 0.0
25/06:30am 11.0 5.3 6.7 75 2.0 ESE 26 39 14 21 1027.0 1026.8 0.0
25/06:01am 11.9 6.3 8.6 80 1.6 E 28 46 15 25 1026.8 1026.6 0.0
25/06:00am 11.7 6.4 8.6 81 1.5 ESE 26 46 14 25 1026.8 1026.6 0.0
25/05:30am 10.7 5.0 6.8 77 1.9 ESE 26 37 14 20 1026.7 1026.5 0.0
25/05:00am 10.6 4.0 6.2 74 2.0 ESE 30 35 16 19 1026.6 1026.4 0.0
25/04:30am 10.5 4.2 5.9 73 2.1 ESE 28 39 15 21 1026.5 1026.3 0.0
25/04:00am 10.8 4.5 5.8 71 2.3 ESE 28 39 15 21 1026.5 1026.3 0.0
25/03:30am 11.5 5.3 6.0 69 2.6 ESE 28 41 15 22 1026.5 1026.3 0.0
25/03:00am 12.1 6.0 6.4 68 2.7 ESE 28 41 15 22 1026.5 1026.3 0.0
25/02:30am 12.3 5.8 6.4 67 2.8 ESE 30 39 16 21 1026.7 1026.5 0.0
25/02:00am 12.4 5.9 6.5 67 2.8 ESE 30 41 16 22 1026.8 1026.6 0.0
25/01:30am 12.6 6.0 6.2 65 3.0 ESE 30 39 16 21 1026.7 1026.5 0.0
25/01:00am 12.9 5.8 6.5 65 3.1 ESE 33 46 18 25 1026.4 1026.2 0.0
25/12:30am 12.7 6.2 6.7 67 2.9 ESE 30 41 16 22 1026.7 1026.5 0.0
25/12:00am 12.6 6.5 6.6 67 2.9 ESE 28 37 15 20 1027.0 1026.8 0.0
 
Date/Time
WST
Temp
°C
App
Temp
°C
Dew
Point
Rel
Hum
%
Delta-T
°C
Wind Press
QNH
hPa
Press
MSL
hPa
Rain
since 9 am
mm
Dir
 
Spd
km/h
Gust
km/h
Spd
kts
Gust
kts
24/11:30pm 13.7 6.9 7.7 67 3.0 E 33 44 18 24 1027.3 1027.1 0.0
24/11:00pm 13.8 7.2 7.6 66 3.0 ESE 32 43 17 23 1027.5 1027.3 0.0
24/10:30pm 13.8 6.9 7.3 65 3.2 ESE 33 52 18 28 1027.6 1027.4 0.0
24/10:21pm 13.9 7.2 7.4 65 3.2 ESE 32 52 17 28 1027.5 1027.3 0.0
24/10:00pm 13.2 7.5 6.5 64 3.2 ESE 26 37 14 20 1027.6 1027.4 0.0
24/09:30pm 13.2 7.7 6.1 62 3.4 ESE 24 35 13 19 1027.7 1027.5 0.0
24/09:00pm 13.7 7.8 5.8 59 3.7 ESE 26 35 14 19 1027.5 1027.3 0.0
24/08:30pm 14.5 7.4 6.3 58 4.0 ESE 33 52 18 28 1027.6 1027.4 0.0
24/08:29pm 14.5 7.0 6.3 58 4.0 ESE 35 54 19 29 1027.6 1027.4 0.0
24/08:00pm 14.6 7.1 6.4 58 4.0 ESE 35 48 19 26 1027.5 1027.3 0.0
24/07:30pm 14.6 7.6 6.2 57 4.1 ESE 32 54 17 29 1027.6 1027.4 0.0
24/07:27pm 14.6 7.7 6.4 58 4.0 ESE 32 54 17 29 1027.6 1027.4 0.0
24/07:00pm 14.6 7.1 6.2 57 4.0 ESE 35 46 19 25 1027.3 1027.1 0.0
24/06:30pm 14.1 8.2 6.0 58 3.9 SE 26 39 14 21 1027.0 1026.8 0.0
24/06:00pm 14.1 8.6 6.0 58 3.9 SE 24 35 13 19 1027.1 1026.9 0.0
24/05:30pm 14.5 9.0 6.1 57 4.0 SE 24 35 13 19 1027.1 1026.9 0.0
24/05:00pm 14.6 9.5 6.2 57 4.0 ESE 22 33 12 18 1027.4 1027.2 0.0
24/04:30pm 16.0 10.2 6.2 52 4.8 ESE 26 39 14 21 1027.2 1027.0 0.0
24/04:00pm 17.0 11.3 6.5 50 5.2 ESE 26 35 14 19 1027.2 1027.0 0.0
24/03:30pm 17.4 11.3 6.6 49 5.4 ESE 28 41 15 22 1027.2 1027.0 0.0
24/03:07pm 16.9 10.8 6.4 50 5.2 ESE 28 46 15 25 1027.2 1027.0 0.0
24/03:00pm 16.9 10.4 6.4 50 5.1 ESE 30 46 16 25 1027.1 1026.9 0.0
24/02:30pm 17.9 12.2 6.7 48 5.6 ESE 26 35 14 19 1027.4 1027.2 0.0
24/02:00pm 17.8 12.1 6.7 48 5.5 ESE 26 37 14 20 1027.4 1027.2 0.0
24/01:30pm 16.3 10.5 6.2 51 4.9 E 26 35 14 19 1027.7 1027.5 0.0
24/01:00pm 15.7 9.6 6.4 54 4.5 ESE 28 39 15 21 1028.1 1027.9 0.0
24/12:30pm 15.8 9.8 5.4 50 5.0 E 26 37 14 20 1028.8 1028.5 0.0
24/12:00pm 16.7 10.5 6.2 50 5.1 ESE 28 39 15 21 1029.3 1029.0 0.0
24/11:30am 16.4 10.7 6.8 53 4.8 E 26 35 14 19 1029.8 1029.6 0.0
24/11:00am 16.3 11.9 7.3 55 4.5 E 20 28 11 15 1030.2 1030.0 0.0
24/10:30am 14.8 10.2 6.4 57 4.1 E 20 28 11 15 1030.5 1030.3 0.0
24/10:00am 15.4 9.9 6.1 54 4.5 E 24 37 13 20 1030.5 1030.3 0.0
24/09:30am 14.6 8.8 6.4 58 4.0 E 26 39 14 21 1030.6 1030.4 0.0
24/09:00am 14.4 9.8 6.7 60 3.7 ESE 20 30 11 16 1030.8 1030.6 0.0
24/08:30am 12.5 8.2 5.4 62 3.3 ESE 17 24 9 13 1030.8 1030.6 0.0
24/08:00am 11.0 6.6 4.9 66 2.8 SE 17 24 9 13 1030.6 1030.4 0.0
24/07:30am 9.1 4.5 3.9 70 2.3 SE 17 24 9 13 1030.4 1030.2 0.0
24/07:00am 8.1 3.4 3.0 70 2.2 SE 17 22 9 12 1030.3 1030.1 0.0
24/06:30am 8.4 2.7 3.1 69 2.3 SE 22 30 12 16 1029.5 1029.2 0.0
24/06:00am 9.0 3.4 3.4 68 2.4 SE 22 30 12 16 1029.1 1028.8 0.0
24/05:30am 10.7 3.8 4.8 67 2.7 ESE 30 43 16 23 1028.7 1028.4 0.0
24/05:00am 9.5 3.6 3.9 68 2.4 ESE 24 33 13 18 1028.7 1028.4 0.0
24/04:30am 9.4 3.1 4.0 69 2.4 ESE 26 35 14 19 1028.4 1028.2 0.0
24/04:00am 9.7 2.3 4.1 68 2.5 ESE 32 41 17 22 1028.1 1027.9 0.0
24/03:30am 10.0 3.4 4.4 68 2.5 ESE 28 41 15 22 1028.2 1028.0 0.0
24/03:00am 10.6 3.8 4.9 68 2.6 ESE 30 46 16 25 1028.4 1028.2 0.0
24/02:57am 10.5 4.0 4.9 68 2.5 ESE 28 46 15 25 1028.6 1028.3 0.0
24/02:30am 10.5 4.0 4.9 68 2.5 ESE 28 41 15 22 1028.9 1028.6 0.0
24/02:00am 10.7 4.7 5.3 69 2.5 ESE 26 37 14 20 1029.2 1028.9 0.0
24/01:30am 10.9 4.2 5.4 69 2.5 ESE 30 39 16 21 1029.0 1028.7 0.0
24/01:00am 10.8 3.5 5.3 69 2.5 ESE 33 44 18 24 1028.7 1028.4 0.0
24/12:30am 11.2 3.6 5.7 69 2.6 ESE 35 46 19 25 1028.7 1028.4 0.0
24/12:00am 11.3 4.2 6.2 71 2.4 SE 33 43 18 23 1028.3 1028.1 0.0
 
Date/Time
WST
Temp
°C
App
Temp
°C
Dew
Point
Rel
Hum
%
Delta-T
°C
Wind Press
QNH
hPa
Press
MSL
hPa
Rain
since 9 am
mm
Dir
 
Spd
km/h
Gust
km/h
Spd
kts
Gust
kts
23/11:30pm 11.3 4.7 6.2 71 2.4 SE 30 43 16 23 1028.2 1028.0 0.0
23/11:00pm 11.6 5.5 6.7 72 2.3 SE 28 39 15 21 1028.3 1028.1 0.0
23/10:30pm 12.1 5.8 7.2 72 2.4 SE 30 43 16 23 1028.3 1028.1 0.0
23/10:00pm 12.3 6.7 7.2 71 2.5 SE 26 37 14 20 1028.3 1028.1 0.0
23/09:30pm 12.7 6.8 7.4 70 2.6 SE 28 41 15 22 1028.3 1028.1 0.0
23/09:00pm 13.1 6.8 7.5 69 2.7 SE 30 48 16 26 1028.0 1027.8 0.0
23/08:30pm 13.4 7.6 7.8 69 2.8 SE 28 41 15 22 1027.7 1027.5 0.0
23/08:00pm 13.8 7.7 8.2 69 2.8 SSE 30 46 16 25 1027.3 1027.1 0.0
23/07:30pm 14.0 8.3 8.4 69 2.8 SSE 28 41 15 22 1027.0 1026.8 0.0
23/07:00pm 14.3 9.1 8.7 69 2.8 SSE 26 39 14 21 1026.7 1026.5 0.0
23/06:30pm 14.9 9.7 8.8 67 3.1 SSE 26 35 14 19 1026.3 1026.1 0.0
23/06:00pm 15.7 11.7 9.1 65 3.4 SSE 20 33 11 18 1026.1 1025.9 0.0
23/05:30pm 16.8 12.4 7.4 54 4.7 SE 20 28 11 15 1025.7 1025.5 0.0
23/05:00pm 18.1 13.2 8.4 53 5.0 SE 24 33 13 18 1025.6 1025.4 0.0
23/04:30pm 19.0 14.1 8.4 50 5.5 SSE 24 37 13 20 1025.5 1025.3 0.0
23/04:00pm 19.4 12.7 7.5 46 6.1 SSE 32 41 17 22 1025.5 1025.3 0.0
23/03:30pm 19.9 13.6 7.6 45 6.3 SSE 30 39 16 21 1025.4 1025.2 0.0
23/03:00pm 20.8 15.8 8.1 44 6.6 SE 24 41 13 22 1025.2 1025.0 0.0
23/02:30pm 20.4 14.6 8.1 45 6.4 SE 28 41 15 22 1025.2 1025.0 0.0
23/02:00pm 20.7 15.5 8.7 46 6.3 SE 26 35 14 19 1025.0 1024.8 0.0
23/01:30pm 20.3 15.0 8.6 47 6.2 SSE 26 41 14 22 1025.0 1024.8 0.0
23/01:00pm 20.4 14.9 9.0 48 6.0 SSE 28 39 15 21 1024.9 1024.7 0.0
23/12:30pm 20.6 15.3 9.8 50 5.8 SSE 28 43 15 23 1025.4 1025.2 0.0
23/12:00pm 21.3 16.8 9.9 48 6.1 SE 24 37 13 20 1025.7 1025.5 0.0
23/11:30am 19.1 13.6 9.3 53 5.2 SSE 28 41 15 22 1026.1 1025.9 0.0
23/11:00am 19.0 13.8 10.3 57 4.7 SSE 28 44 15 24 1026.1 1025.9 0.0
23/10:30am 17.6 11.6 10.2 62 4.0 SSE 32 50 17 27 1026.0 1025.8 0.0
23/10:03am 19.1 14.3 11.7 62 4.1 SE 28 50 15 27 1025.7 1025.5 0.0
23/10:00am 19.0 14.6 11.8 63 4.0 SE 26 39 14 21 1025.7 1025.5 0.0
23/09:55am 19.1 14.4 12.1 64 3.9 SE 28 46 15 25 1025.7 1025.5 0.0
23/09:30am 17.9 11.7 11.5 66 3.5 SE 35 52 19 28 1025.5 1025.3 0.0
23/09:01am 17.3 11.8 11.8 70 3.0 SE 32 50 17 27 1025.4 1025.2 0.0
23/09:00am 17.3 11.6 11.8 70 3.0 SE 33 50 18 27 1025.4 1025.2 0.0
23/08:30am 16.1 10.7 12.1 77 2.2 SE 32 43 17 23 1025.3 1025.1 0.0
23/08:00am 15.1 9.7 12.1 82 1.6 SE 32 43 17 23 1024.8 1024.6 0.0
23/07:30am 14.2 9.4 11.7 85 1.3 SE 28 41 15 22 1024.5 1024.3 0.0
23/07:00am 13.2 9.3 10.7 85 1.3 SE 22 32 12 17 1024.3 1024.1 0.0
23/06:30am 13.1 8.7 10.5 84 1.4 SE 24 30 13 16 1023.8 1023.6 0.0
23/06:00am 13.6 9.3 10.8 83 1.5 SE 24 32 13 17 1023.4 1023.2 0.0
23/05:30am 13.8 9.5 10.8 82 1.6 SE 24 32 13 17 1023.4 1023.2 0.0
23/05:00am 13.9 9.6 10.9 82 1.6 SE 24 30 13 16 1023.1 1022.9 0.0
23/04:30am 14.0 10.1 10.8 81 1.7 SE 22 30 12 16 1022.9 1022.7 0.0
23/04:00am 14.4 9.8 11.2 81 1.7 SE 26 33 14 18 1022.8 1022.6 0.0
23/03:30am 14.3 10.0 10.9 80 1.8 SE 24 37 13 20 1022.5 1022.3 0.0
23/03:00am 14.5 10.2 10.9 79 1.9 SE 24 32 13 17 1022.5 1022.3 0.0
23/02:30am 14.7 10.6 11.3 80 1.8 SE 24 32 13 17 1022.3 1022.1 0.0
23/02:00am 14.8 10.3 11.4 80 1.8 SE 26 33 14 18 1022.2 1022.0 0.0
23/01:30am 15.0 10.6 11.8 81 1.7 SE 26 35 14 19 1022.1 1021.9 0.0
23/01:00am 14.9 10.4 11.5 80 1.8 SE 26 32 14 17 1022.0 1021.8 0.0
23/12:30am 15.4 10.1 11.4 77 2.2 SE 30 37 16 20 1021.9 1021.7 0.0
23/12:00am 16.2 10.6 11.4 73 2.6 SE 32 41 17 22 1021.7 1021.4 0.0

Other Formats:

Comma delimited format used in spreadsheet applications
http://www.bom.gov.au/fwo/IDW60801/IDW60801.94600.axf

JavaScript Object Notation format (JSON) in row-major order
http://www.bom.gov.au/fwo/IDW60801/IDW60801.94600.json